Time;durP1;ratioP1;P1;durP2;ratioP2;P2;SDS_P1;SDS_P2;PMS_P1;PMS_P2;Temp;Humidity;BMP_temperature;BMP_pressure;BME280_temperature;BME280_humidity;BME280_pressure;Samples;Min_cycle;Max_cycle;Signal;HPM_P1;HPM_P2
2023/07/30 00:00:35;;;;;;;0.00;0.00;;;15.10;100.00;;;;;;5098222;28;20067;-83
2023/07/30 00:03:03;;;;;;;0.00;0.00;;;15.00;100.00;;;;;;5112925;28;20047;-83
2023/07/30 00:05:30;;;;;;;0.00;0.00;;;15.00;100.00;;;;;;5102786;28;20040;-83
2023/07/30 00:07:56;;;;;;;0.00;0.00;;;15.00;100.00;;;;;;5112769;28;20078;-83
2023/07/30 00:10:23;;;;;;;0.00;0.00;;;14.90;100.00;;;;;;5108703;28;20066;-83
2023/07/30 00:12:50;;;;;;;0.00;0.00;;;14.90;100.00;;;;;;5096392;28;20613;-84
2023/07/30 00:15:17;;;;;;;0.00;0.00;;;14.90;100.00;;;;;;5105784;28;20135;-83
2023/07/30 00:17:44;;;;;;;0.00;0.00;;;14.80;100.00;;;;;;5096159;28;20434;-84
2023/07/30 00:20:11;;;;;;;0.00;0.00;;;14.80;100.00;;;;;;5091938;28;20044;-83
2023/07/30 00:22:38;;;;;;;0.00;0.00;;;14.70;100.00;;;;;;5109288;28;20039;-84
2023/07/30 00:25:05;;;;;;;0.00;0.00;;;14.70;100.00;;;;;;5113038;28;20071;-83
2023/07/30 00:27:32;;;;;;;0.00;0.00;;;14.70;100.00;;;;;;5101339;28;20450;-84
2023/07/30 00:29:59;;;;;;;0.00;0.00;;;14.70;100.00;;;;;;5111831;28;20425;-84
2023/07/30 00:32:26;;;;;;;0.00;0.00;;;14.70;100.00;;;;;;5094610;28;20044;-84
2023/07/30 00:34:53;;;;;;;0.00;0.00;;;14.70;100.00;;;;;;5100945;28;20043;-84
2023/07/30 00:37:20;;;;;;;0.00;0.00;;;14.60;100.00;;;;;;5091202;28;20048;-84
2023/07/30 00:39:47;;;;;;;0.00;0.00;;;14.60;100.00;;;;;;5099966;28;20043;-83
2023/07/30 00:42:14;;;;;;;0.00;0.00;;;14.60;100.00;;;;;;5110609;28;20093;-84
2023/07/30 00:44:41;;;;;;;0.00;0.00;;;14.50;100.00;;;;;;5098470;28;20075;-84
2023/07/30 00:47:08;;;;;;;0.00;0.00;;;14.50;100.00;;;;;;5100019;28;20159;-84
2023/07/30 00:49:35;;;;;;;0.00;0.00;;;14.50;100.00;;;;;;5105434;28;20120;-84
2023/07/30 00:52:04;;;;;;;0.00;0.00;;;14.50;100.00;;;;;;5105008;28;20096;-83
2023/07/30 00:54:31;;;;;;;0.00;0.00;;;14.40;100.00;;;;;;5100322;28;20050;-84
2023/07/30 00:56:58;;;;;;;0.00;0.00;;;14.40;100.00;;;;;;5101421;28;20044;-84
2023/07/30 00:59:25;;;;;;;0.00;0.00;;;14.40;100.00;;;;;;5109878;28;20467;-84
2023/07/30 01:01:52;;;;;;;0.00;0.00;;;14.30;100.00;;;;;;5100775;28;20121;-84
2023/07/30 01:04:20;;;;;;;0.00;0.00;;;14.30;100.00;;;;;;5104000;28;20123;-82
2023/07/30 01:06:47;;;;;;;0.00;0.00;;;14.30;100.00;;;;;;5101940;28;20063;-84
2023/07/30 01:09:14;;;;;;;0.00;0.00;;;14.30;100.00;;;;;;5100239;28;20054;-83
2023/07/30 01:11:42;;;;;;;0.00;0.00;;;14.30;100.00;;;;;;5088570;28;20587;-83
2023/07/30 01:14:09;;;;;;;0.00;0.00;;;14.30;100.00;;;;;;5098125;28;20484;-83
2023/07/30 01:16:37;;;;;;;0.00;0.00;;;14.30;100.00;;;;;;5100333;28;20043;-83
2023/07/30 01:19:06;;;;;;;0.00;0.00;;;14.20;100.00;;;;;;5101163;28;20040;-83
2023/07/30 01:21:36;;;;;;;0.00;0.00;;;14.30;100.00;;;;;;5096401;28;20060;-84
2023/07/30 01:24:04;;;;;;;0.00;0.00;;;14.20;100.00;;;;;;5110959;28;20048;-83
2023/07/30 01:26:45;;;;;;;0.00;0.00;;;14.20;100.00;;;;;;5095881;28;20467;-83
2023/07/30 01:29:21;;;;;;;0.00;0.00;;;14.20;100.00;;;;;;5102975;28;20122;-83
2023/07/30 01:31:55;;;;;;;0.00;0.00;;;14.20;100.00;;;;;;5105507;28;20164;-83
2023/07/30 01:34:27;;;;;;;0.00;0.00;;;14.20;100.00;;;;;;5095370;28;20055;-83
2023/07/30 01:36:55;;;;;;;0.00;0.00;;;14.20;100.00;;;;;;5095696;28;20126;-83
2023/07/30 01:39:25;;;;;;;0.00;0.00;;;14.20;100.00;;;;;;5093608;28;20164;-83
2023/07/30 01:41:54;;;;;;;0.00;0.00;;;14.20;100.00;;;;;;5103595;28;20055;-83
2023/07/30 01:44:21;;;;;;;0.00;0.00;;;14.20;100.00;;;;;;5106858;28;20055;-84
2023/07/30 01:46:48;;;;;;;0.00;0.00;;;14.20;100.00;;;;;;5103127;28;20451;-84
2023/07/30 01:49:15;;;;;;;0.00;0.00;;;14.10;100.00;;;;;;5103812;28;20056;-83
2023/07/30 01:51:42;;;;;;;0.00;0.00;;;14.10;100.00;;;;;;5103563;28;20140;-84
2023/07/30 01:54:09;;;;;;;0.00;0.00;;;14.10;100.00;;;;;;5103977;28;20830;-83
2023/07/30 01:56:35;;;;;;;0.00;0.00;;;14.10;100.00;;;;;;5104003;27;20039;-83
2023/07/30 01:59:02;;;;;;;0.00;0.00;;;14.10;100.00;;;;;;5109840;28;20040;-83
2023/07/30 02:01:29;;;;;;;0.00;0.00;;;14.10;100.00;;;;;;5099011;28;20039;-84
2023/07/30 02:03:56;;;;;;;0.00;0.00;;;14.10;100.00;;;;;;5103730;28;20043;-83
2023/07/30 02:06:23;;;;;;;0.00;0.00;;;14.00;100.00;;;;;;5103354;28;20105;-83
2023/07/30 02:08:50;;;;;;;0.00;0.00;;;14.00;100.00;;;;;;5105938;28;20047;-85
2023/07/30 02:11:17;;;;;;;0.00;0.00;;;14.00;100.00;;;;;;5094020;28;20050;-84
2023/07/30 02:13:44;;;;;;;0.00;0.00;;;14.00;100.00;;;;;;5095724;28;20048;-84
2023/07/30 02:16:11;;;;;;;0.00;0.00;;;14.00;100.00;;;;;;5111674;28;20514;-84
2023/07/30 02:18:38;;;;;;;0.00;0.00;;;14.00;100.00;;;;;;5097960;28;20692;-84
2023/07/30 02:21:04;;;;;;;0.00;0.00;;;14.00;100.00;;;;;;5103224;28;20603;-84
2023/07/30 02:23:31;;;;;;;0.00;0.00;;;14.00;100.00;;;;;;5098414;28;20089;-84
2023/07/30 02:25:58;;;;;;;0.00;0.00;;;14.00;100.00;;;;;;5111495;28;20131;-84
2023/07/30 02:28:25;;;;;;;0.00;0.00;;;14.00;100.00;;;;;;5108248;28;20117;-83
2023/07/30 02:30:52;;;;;;;0.00;0.00;;;14.00;100.00;;;;;;5109579;28;20515;-83
2023/07/30 02:33:19;;;;;;;0.00;0.00;;;14.10;100.00;;;;;;5109182;28;20043;-84
2023/07/30 02:35:46;;;;;;;0.00;0.00;;;14.10;100.00;;;;;;5106433;28;20052;-84
2023/07/30 02:38:13;;;;;;;0.00;0.00;;;14.10;100.00;;;;;;5104648;28;20082;-83
2023/07/30 02:40:40;;;;;;;0.00;0.00;;;14.20;100.00;;;;;;5096827;28;20132;-84
2023/07/30 02:43:06;;;;;;;0.00;0.00;;;14.30;100.00;;;;;;5099936;28;20552;-84
2023/07/30 02:45:33;;;;;;;0.00;0.00;;;14.30;100.00;;;;;;5101710;28;20052;-84
2023/07/30 02:48:00;;;;;;;0.00;0.00;;;14.40;100.00;;;;;;5108323;28;20490;-84
2023/07/30 02:50:27;;;;;;;0.00;0.00;;;14.40;100.00;;;;;;5102452;28;20048;-84
2023/07/30 02:52:54;;;;;;;0.00;0.00;;;14.40;100.00;;;;;;5098235;28;20044;-82
2023/07/30 02:55:21;;;;;;;0.00;0.00;;;14.50;100.00;;;;;;5092138;28;20044;-83
2023/07/30 02:57:48;;;;;;;0.00;0.00;;;14.40;100.00;;;;;;5088183;28;20051;-83
2023/07/30 03:00:15;;;;;;;0.00;0.00;;;14.40;100.00;;;;;;5091871;28;20047;-84
2023/07/30 03:02:42;;;;;;;0.00;0.00;;;14.40;100.00;;;;;;5094935;28;20610;-84
2023/07/30 03:05:09;;;;;;;0.00;0.00;;;14.40;100.00;;;;;;5106691;28;20047;-84
2023/07/30 03:07:36;;;;;;;0.00;0.00;;;14.40;100.00;;;;;;5094625;28;20542;-85
2023/07/30 03:10:03;;;;;;;0.00;0.00;;;14.40;100.00;;;;;;5096959;28;20627;-84
2023/07/30 03:12:30;;;;;;;0.00;0.00;;;14.30;100.00;;;;;;5101122;28;20048;-83
2023/07/30 03:14:57;;;;;;;0.00;0.00;;;14.40;100.00;;;;;;5095954;28;20051;-84
2023/07/30 03:17:23;;;;;;;0.00;0.00;;;14.30;100.00;;;;;;5101934;28;20758;-84
2023/07/30 03:19:51;;;;;;;0.00;0.00;;;14.40;100.00;;;;;;5107011;28;20046;-84
2023/07/30 03:22:17;;;;;;;0.00;0.00;;;14.40;100.00;;;;;;5093303;28;20121;-84
2023/07/30 03:24:47;;;;;;;0.00;0.00;;;14.50;100.00;;;;;;5097363;28;20113;-84
2023/07/30 03:27:14;;;;;;;0.00;0.00;;;14.50;100.00;;;;;;5094534;28;20097;-84
2023/07/30 03:29:41;;;;;;;0.00;0.00;;;14.60;100.00;;;;;;5096151;28;20100;-84
2023/07/30 03:32:08;;;;;;;0.00;0.00;;;14.60;100.00;;;;;;5086073;28;20489;-84
2023/07/30 03:34:35;;;;;;;0.00;0.00;;;14.60;100.00;;;;;;5093073;28;20101;-84
2023/07/30 03:37:02;;;;;;;0.00;0.00;;;14.60;100.00;;;;;;5088383;28;20663;-83
2023/07/30 03:39:29;;;;;;;0.00;0.00;;;14.70;100.00;;;;;;5100841;28;20098;-83
2023/07/30 03:41:55;;;;;;;0.00;0.00;;;14.70;100.00;;;;;;5091287;28;20072;-83
2023/07/30 03:44:23;;;;;;;0.00;0.00;;;14.70;100.00;;;;;;5092040;28;20125;-83
2023/07/30 03:46:50;;;;;;;0.00;0.00;;;14.70;100.00;;;;;;5103484;28;20496;-83
2023/07/30 03:49:16;;;;;;;0.00;0.00;;;14.70;100.00;;;;;;5093005;28;20414;-84
2023/07/30 03:51:43;;;;;;;0.00;0.00;;;14.70;100.00;;;;;;5088366;28;20174;-84
2023/07/30 03:54:10;;;;;;;0.00;0.00;;;14.70;100.00;;;;;;5102429;28;20116;-83
2023/07/30 03:56:37;;;;;;;0.00;0.00;;;14.80;100.00;;;;;;5103586;28;20055;-83
2023/07/30 03:59:04;;;;;;;0.00;0.00;;;14.80;100.00;;;;;;5108213;28;20048;-82
2023/07/30 04:01:31;;;;;;;0.00;0.00;;;14.90;100.00;;;;;;5097300;28;20079;-83
2023/07/30 04:03:58;;;;;;;0.00;0.00;;;14.90;100.00;;;;;;5098883;28;20043;-83
2023/07/30 04:06:25;;;;;;;0.00;0.00;;;14.90;100.00;;;;;;5107269;28;20067;-83
2023/07/30 04:08:52;;;;;;;0.00;0.00;;;14.90;100.00;;;;;;5108290;28;20040;-83
2023/07/30 04:11:19;;;;;;;0.00;0.00;;;14.90;100.00;;;;;;5098651;28;20072;-83
2023/07/30 04:13:46;;;;;;;0.00;0.00;;;15.00;100.00;;;;;;5108267;28;20051;-83
2023/07/30 04:16:13;;;;;;;0.00;0.00;;;15.00;100.00;;;;;;5105394;28;20050;-83
2023/07/30 04:18:40;;;;;;;0.00;0.00;;;15.00;100.00;;;;;;5106430;28;20589;-83
2023/07/30 04:21:07;;;;;;;0.00;0.00;;;15.10;100.00;;;;;;5108951;28;20068;-83
2023/07/30 04:23:34;;;;;;;0.00;0.00;;;15.10;100.00;;;;;;5102031;28;20124;-82
2023/07/30 04:26:00;;;;;;;0.00;0.00;;;15.20;100.00;;;;;;5104590;28;20616;-83
2023/07/30 04:28:27;;;;;;;0.00;0.00;;;15.20;100.00;;;;;;5103414;28;20043;-83
2023/07/30 04:30:54;;;;;;;0.00;0.00;;;15.20;100.00;;;;;;5109213;28;20048;-83
2023/07/30 04:33:21;;;;;;;0.00;0.00;;;15.20;100.00;;;;;;5104148;28;20040;-84
2023/07/30 04:35:48;;;;;;;0.00;0.00;;;15.10;100.00;;;;;;5100323;28;20048;-84
2023/07/30 04:38:15;;;;;;;0.00;0.00;;;15.20;100.00;;;;;;5108822;28;20074;-83
2023/07/30 04:40:42;;;;;;;0.00;0.00;;;15.20;100.00;;;;;;5106892;28;20051;-83
2023/07/30 04:43:09;;;;;;;0.00;0.00;;;15.20;100.00;;;;;;5097915;28;20067;-82
2023/07/30 04:45:36;;;;;;;0.00;0.00;;;15.30;100.00;;;;;;5095213;28;20048;-83
2023/07/30 04:48:03;;;;;;;0.00;0.00;;;15.40;100.00;;;;;;5099429;28;20048;-83
2023/07/30 04:50:30;;;;;;;0.00;0.00;;;15.50;100.00;;;;;;5100882;28;20048;-83
2023/07/30 04:52:57;;;;;;;0.00;0.00;;;15.70;100.00;;;;;;5100456;28;20043;-83
2023/07/30 04:55:24;;;;;;;0.00;0.00;;;15.80;100.00;;;;;;5107814;28;20087;-83
2023/07/30 04:57:51;;;;;;;0.00;0.00;;;16.00;100.00;;;;;;5107402;28;20048;-83
2023/07/30 05:00:18;;;;;;;0.00;0.00;;;16.00;100.00;;;;;;5101859;28;20832;-84
2023/07/30 05:02:44;;;;;;;0.00;0.00;;;16.10;100.00;;;;;;5096666;28;20048;-84
2023/07/30 05:05:11;;;;;;;0.00;0.00;;;16.20;100.00;;;;;;5104692;28;20136;-83
2023/07/30 05:07:38;;;;;;;0.00;0.00;;;16.20;100.00;;;;;;5106896;28;20169;-83
2023/07/30 05:10:08;;;;;;;0.00;0.00;;;16.30;100.00;;;;;;5094401;28;20093;-83
2023/07/30 05:12:35;;;;;;;0.00;0.00;;;16.40;100.00;;;;;;5094471;28;20636;-83
2023/07/30 05:15:03;;;;;;;0.00;0.00;;;16.40;100.00;;;;;;5098761;28;20051;-82
2023/07/30 05:17:30;;;;;;;0.00;0.00;;;16.30;100.00;;;;;;5099650;28;20052;-83
2023/07/30 05:19:57;;;;;;;0.00;0.00;;;16.20;100.00;;;;;;5104760;28;20488;-82
2023/07/30 05:22:25;;;;;;;0.00;0.00;;;16.20;100.00;;;;;;5108502;28;20125;-83
2023/07/30 05:24:52;;;;;;;0.00;0.00;;;16.10;100.00;;;;;;5106951;28;20124;-82
2023/07/30 05:27:18;;;;;;;0.00;0.00;;;16.10;100.00;;;;;;5100765;28;20057;-83
2023/07/30 05:29:46;;;;;;;0.00;0.00;;;16.10;100.00;;;;;;5101088;28;20044;-83
2023/07/30 05:32:15;;;;;;;0.00;0.00;;;16.10;100.00;;;;;;5099778;28;20079;-83
2023/07/30 05:34:42;;;;;;;0.00;0.00;;;16.10;100.00;;;;;;5094285;28;20120;-83
2023/07/30 05:37:09;;;;;;;0.00;0.00;;;16.10;100.00;;;;;;5098132;28;20444;-83
2023/07/30 05:39:36;;;;;;;0.00;0.00;;;16.10;100.00;;;;;;5100621;28;20488;-83
2023/07/30 05:42:03;;;;;;;0.00;0.00;;;16.10;100.00;;;;;;5098197;28;20036;-82
2023/07/30 05:44:30;;;;;;;0.00;0.00;;;16.10;100.00;;;;;;5097994;28;20119;-82
2023/07/30 05:46:56;;;;;;;0.00;0.00;;;16.10;100.00;;;;;;5104576;28;20643;-83
2023/07/30 05:49:24;;;;;;;0.00;0.00;;;16.10;100.00;;;;;;5099235;28;20051;-82
2023/07/30 05:51:51;;;;;;;0.00;0.00;;;16.20;100.00;;;;;;5102960;28;20126;-82
2023/07/30 05:54:18;;;;;;;0.00;0.00;;;16.20;100.00;;;;;;5104560;28;20134;-82
2023/07/30 05:56:45;;;;;;;0.00;0.00;;;16.20;100.00;;;;;;5106072;28;20122;-83
2023/07/30 05:59:12;;;;;;;0.00;0.00;;;16.30;100.00;;;;;;5104395;28;20122;-83
2023/07/30 06:01:43;;;;;;;0.00;0.00;;;16.40;100.00;;;;;;5100203;28;20054;-84
2023/07/30 06:04:10;;;;;;;0.00;0.00;;;16.30;100.00;;;;;;5106254;28;20591;-82
2023/07/30 06:06:37;;;;;;;0.00;0.00;;;16.20;100.00;;;;;;5100093;28;20130;-83
2023/07/30 06:09:04;;;;;;;0.00;0.00;;;16.10;100.00;;;;;;5100793;28;20098;-83
2023/07/30 06:11:31;;;;;;;0.00;0.00;;;16.30;100.00;;;;;;5097539;28;20127;-82
2023/07/30 06:13:58;;;;;;;0.00;0.00;;;16.40;100.00;;;;;;5096583;28;20124;-84
2023/07/30 06:16:25;;;;;;;0.00;0.00;;;16.60;100.00;;;;;;5095742;28;20048;-82
2023/07/30 06:18:52;;;;;;;0.00;0.00;;;16.70;100.00;;;;;;5099299;28;20055;-83
2023/07/30 06:21:19;;;;;;;0.00;0.00;;;16.80;100.00;;;;;;5096962;28;20040;-83
2023/07/30 06:23:46;;;;;;;0.00;0.00;;;17.00;100.00;;;;;;5104441;28;20036;-83
2023/07/30 06:26:13;;;;;;;0.00;0.00;;;16.80;100.00;;;;;;5105449;28;20051;-82
2023/07/30 06:28:39;;;;;;;0.00;0.00;;;17.00;100.00;;;;;;5110103;28;20194;-84
2023/07/30 06:31:07;;;;;;;0.00;0.00;;;17.00;100.00;;;;;;5108280;28;20055;-83
2023/07/30 06:33:34;;;;;;;0.00;0.00;;;17.00;100.00;;;;;;5110274;28;20043;-83
2023/07/30 06:36:01;;;;;;;0.00;0.00;;;17.20;100.00;;;;;;5108952;28;20052;-82
2023/07/30 06:38:28;;;;;;;0.00;0.00;;;17.20;100.00;;;;;;5109347;28;20044;-82
2023/07/30 06:40:57;;;;;;;0.00;0.00;;;17.20;100.00;;;;;;5101358;28;20144;-82
2023/07/30 06:43:24;;;;;;;0.00;0.00;;;17.20;100.00;;;;;;5109980;28;20105;-82
2023/07/30 06:45:51;;;;;;;0.00;0.00;;;17.20;100.00;;;;;;5097988;28;20048;-83
2023/07/30 06:48:18;;;;;;;0.00;0.00;;;17.20;100.00;;;;;;5095964;28;20048;-83
2023/07/30 06:50:45;;;;;;;0.00;0.00;;;17.20;100.00;;;;;;5094517;28;21341;-82
2023/07/30 06:53:12;;;;;;;0.00;0.00;;;17.20;100.00;;;;;;5104564;28;20075;-82
2023/07/30 06:55:39;;;;;;;0.00;0.00;;;17.30;100.00;;;;;;5102230;28;20100;-82
2023/07/30 06:58:06;;;;;;;0.00;0.00;;;17.40;100.00;;;;;;5098805;28;20126;-83
2023/07/30 07:00:33;;;;;;;0.00;0.00;;;17.40;100.00;;;;;;5095101;28;20051;-82
2023/07/30 07:03:00;;;;;;;0.00;0.00;;;17.50;100.00;;;;;;5098014;28;20044;-84
2023/07/30 07:05:27;;;;;;;0.00;0.00;;;17.60;100.00;;;;;;5096510;28;20117;-82
2023/07/30 07:07:54;;;;;;;0.00;0.00;;;17.80;100.00;;;;;;5104226;28;20047;-82
2023/07/30 07:10:21;;;;;;;0.00;0.00;;;17.80;100.00;;;;;;5107045;28;20122;-82
2023/07/30 07:12:49;;;;;;;0.00;0.00;;;17.80;100.00;;;;;;5101802;28;20444;-82
2023/07/30 07:15:16;;;;;;;0.00;0.00;;;17.90;100.00;;;;;;5097142;28;20079;-83
2023/07/30 07:17:43;;;;;;;0.00;0.00;;;18.20;100.00;;;;;;5091691;28;20056;-83
2023/07/30 07:20:11;;;;;;;0.00;0.00;;;18.70;100.00;;;;;;5103245;28;20047;-83
2023/07/30 07:22:38;;;;;;;0.00;0.00;;;19.20;100.00;;;;;;5107663;28;20044;-83
2023/07/30 07:25:05;;;;;;;0.00;0.00;;;19.20;98.50;;;;;;5104661;28;20044;-83
2023/07/30 07:27:32;;;;;;;0.00;0.00;;;18.90;99.00;;;;;;5099811;28;20043;-83
2023/07/30 07:29:59;;;;;;;0.00;0.00;;;18.70;99.30;;;;;;5106133;28;20048;-83
2023/07/30 07:32:27;;;;;;;0.00;0.00;;;18.70;98.80;;;;;;5092306;28;20051;-83
2023/07/30 07:34:54;;;;;;;0.00;0.00;;;18.70;100.00;;;;;;5094585;28;20439;-83
2023/07/30 07:37:21;;;;;;;0.38;0.20;;;19.70;99.30;;;;;;5095105;28;20094;-84
2023/07/30 07:39:48;;;;;;;0.00;0.00;;;20.50;94.30;;;;;;5105313;28;20047;-84
2023/07/30 07:42:15;;;;;;;0.00;0.00;;;20.70;96.10;;;;;;5096139;28;20075;-84
2023/07/30 07:44:43;;;;;;;0.00;0.00;;;21.00;93.70;;;;;;5102370;28;20048;-84
2023/07/30 07:47:10;;;;;;;0.00;0.00;;;21.40;92.70;;;;;;5102809;28;20048;-85
2023/07/30 07:49:37;;;;;;;0.00;0.00;;;22.00;85.90;;;;;;5110729;28;20705;-84
2023/07/30 07:52:04;;;;;;;0.00;0.00;;;22.40;87.10;;;;;;5102851;28;20076;-84
2023/07/30 07:54:31;;;;;;;0.00;0.00;;;22.70;79.60;;;;;;5105002;28;20044;-85
2023/07/30 07:56:58;;;;;;;0.00;0.00;;;22.40;78.40;;;;;;5098872;28;20108;-84
2023/07/30 07:59:27;;;;;;;0.00;0.00;;;22.10;81.80;;;;;;5104553;28;20089;-83
2023/07/30 08:01:54;;;;;;;0.00;0.00;;;22.50;83.70;;;;;;5112776;28;20510;-84
2023/07/30 08:04:21;;;;;;;0.00;0.00;;;22.90;82.80;;;;;;5098865;28;20050;-84
2023/07/30 08:06:48;;;;;;;0.00;0.00;;;23.40;79.40;;;;;;5110054;28;20048;-80
2023/07/30 08:09:15;;;;;;;0.00;0.00;;;23.30;76.10;;;;;;5108090;28;20557;-80
2023/07/30 08:11:42;;;;;;;0.00;0.00;;;23.30;76.60;;;;;;5100874;28;20131;-81
2023/07/30 08:14:09;;;;;;;0.00;0.00;;;23.60;78.00;;;;;;5112545;28;20043;-82
2023/07/30 08:16:36;;;;;;;0.00;0.00;;;23.80;76.40;;;;;;5107187;28;20861;-82
2023/07/30 08:19:03;;;;;;;0.00;0.00;;;23.70;76.80;;;;;;5106135;28;20112;-82
2023/07/30 08:21:30;;;;;;;0.00;0.00;;;23.70;75.80;;;;;;5096165;28;20381;-82
2023/07/30 08:23:56;;;;;;;0.00;0.00;;;24.00;73.10;;;;;;5094732;28;20056;-82
2023/07/30 08:26:23;;;;;;;0.00;0.00;;;24.50;74.60;;;;;;5098367;28;20131;-84
2023/07/30 08:28:50;;;;;;;0.00;0.00;;;24.50;70.40;;;;;;5109724;28;20815;-82
2023/07/30 08:31:17;;;;;;;0.00;0.00;;;24.90;71.00;;;;;;5109736;28;20043;-82
2023/07/30 08:33:44;;;;;;;0.00;0.00;;;24.40;70.50;;;;;;5101119;28;20714;-84
2023/07/30 08:36:11;;;;;;;0.10;0.10;;;24.60;70.20;;;;;;5105231;28;20131;-86
2023/07/30 08:38:38;;;;;;;0.00;0.00;;;25.10;73.60;;;;;;5099048;28;20047;-85
2023/07/30 08:41:04;;;;;;;0.10;0.10;;;25.50;69.20;;;;;;5102832;28;20142;-87
2023/07/30 08:43:32;;;;;;;0.03;0.03;;;25.80;66.90;;;;;;5101410;28;20568;-85
2023/07/30 08:45:59;;;;;;;0.20;0.20;;;25.90;65.30;;;;;;5102356;28;20591;-86
2023/07/30 08:48:27;;;;;;;0.10;0.10;;;26.00;64.30;;;;;;5111413;28;20051;-86
2023/07/30 08:50:57;;;;;;;0.00;0.00;;;26.40;65.20;;;;;;5105898;28;20071;-86
2023/07/30 08:53:28;;;;;;;0.00;0.00;;;26.50;63.60;;;;;;5097154;28;20487;-85
2023/07/30 08:55:56;;;;;;;0.00;0.00;;;26.60;63.10;;;;;;5107786;28;20052;-86
2023/07/30 08:58:25;;;;;;;0.00;0.00;;;27.20;64.50;;;;;;5102670;28;20047;-86
2023/07/30 09:00:55;;;;;;;0.08;0.08;;;27.80;62.40;;;;;;5107451;28;20146;-85
2023/07/30 09:03:24;;;;;;;0.10;0.10;;;28.10;59.90;;;;;;5110800;28;20104;-85
2023/07/30 09:05:51;;;;;;;0.00;0.00;;;28.10;55.10;;;;;;5112248;28;20067;-86
2023/07/30 09:08:18;;;;;;;0.00;0.00;;;27.90;58.10;;;;;;5108287;28;20108;-86
2023/07/30 09:10:45;;;;;;;0.10;0.10;;;28.10;59.80;;;;;;5106356;28;20051;-86
2023/07/30 09:13:21;;;;;;;0.10;0.10;;;28.50;58.70;;;;;;5105577;28;20048;-85
2023/07/30 09:15:49;;;;;;;0.00;0.00;;;29.10;56.70;;;;;;5106277;28;20794;-86
2023/07/30 09:18:19;;;;;;;0.10;0.10;;;29.00;59.20;;;;;;5106015;28;20047;-85
2023/07/30 09:20:46;;;;;;;0.00;0.00;;;29.10;57.40;;;;;;5095635;28;20135;-85
2023/07/30 09:23:14;;;;;;;0.10;0.10;;;29.10;52.40;;;;;;5104179;28;20501;-84
2023/07/30 09:25:41;;;;;;;0.00;0.00;;;28.40;55.70;;;;;;5112756;28;20672;-85
2023/07/30 09:28:08;;;;;;;0.00;0.00;;;27.70;55.80;;;;;;5098159;28;20131;-84
2023/07/30 09:30:35;;;;;;;0.00;0.00;;;27.10;60.40;;;;;;5097637;28;20738;-84
2023/07/30 09:33:02;;;;;;;0.00;0.00;;;26.60;57.30;;;;;;5100994;28;20087;-85
2023/07/30 09:35:33;;;;;;;0.00;0.00;;;25.90;57.40;;;;;;5102115;28;20164;-85
2023/07/30 09:38:02;;;;;;;0.10;0.10;;;26.20;60.70;;;;;;5108382;28;20445;-84
2023/07/30 09:40:35;;;;;;;0.00;0.00;;;26.80;58.30;;;;;;5110320;28;20055;-84
2023/07/30 09:43:03;;;;;;;0.00;0.00;;;27.10;59.10;;;;;;5097828;28;20075;-85
2023/07/30 09:45:37;;;;;;;0.03;0.03;;;28.00;56.40;;;;;;5096863;28;20051;-85
2023/07/30 09:48:06;;;;;;;0.00;0.00;;;29.00;56.10;;;;;;5110829;28;20126;-85
2023/07/30 09:50:37;;;;;;;0.00;0.00;;;28.50;52.00;;;;;;5097007;28;20077;-84
2023/07/30 09:53:04;;;;;;;0.00;0.00;;;28.00;53.50;;;;;;5099004;28;20150;-85
2023/07/30 09:55:32;;;;;;;0.10;0.10;;;28.10;56.70;;;;;;5103634;28;20472;-86
2023/07/30 09:57:58;;;;;;;0.00;0.00;;;28.70;58.00;;;;;;5102625;28;20144;-86
2023/07/30 10:00:29;;;;;;;0.10;0.10;;;29.40;56.30;;;;;;5100952;28;20051;-85
2023/07/30 10:02:58;;;;;;;0.00;0.00;;;30.10;53.10;;;;;;5111829;27;20031;-85
2023/07/30 10:05:32;;;;;;;0.10;0.10;;;30.90;53.50;;;;;;5105740;27;20040;-86
2023/07/30 10:08:21;;;;;;;0.00;0.00;;;30.50;52.40;;;;;;5094106;28;20485;-86
2023/07/30 10:10:49;;;;;;;0.00;0.00;;;30.40;51.30;;;;;;5108708;28;20100;-86
2023/07/30 10:13:17;;;;;;;0.10;0.10;;;30.10;50.60;;;;;;5101717;28;20047;-86
2023/07/30 10:15:45;;;;;;;0.00;0.00;;;30.40;51.50;;;;;;5110491;28;20401;-86
2023/07/30 10:18:12;;;;;;;0.10;0.10;;;30.20;52.30;;;;;;5107320;28;20123;-85
2023/07/30 10:20:40;;;;;;;0.10;0.10;;;30.90;51.80;;;;;;5105087;28;20065;-85
2023/07/30 10:23:07;;;;;;;0.10;0.10;;;31.80;50.40;;;;;;5109162;28;20039;-85
2023/07/30 10:25:48;;;;;;;0.00;0.00;;;32.20;46.30;;;;;;5105385;28;20757;-85
2023/07/30 10:28:33;;;;;;;0.00;0.00;;;31.60;48.00;;;;;;5103172;28;20047;-85
2023/07/30 10:31:09;;;;;;;0.60;0.20;;;31.00;47.50;;;;;;5102361;28;20075;-85
2023/07/30 10:33:53;;;;;;;0.28;0.28;;;30.10;47.80;;;;;;5107150;28;20586;-85
2023/07/30 10:36:44;;;;;;;0.10;0.10;;;29.60;51.10;;;;;;5106712;28;20051;-85
2023/07/30 10:39:19;;;;;;;0.00;0.00;;;29.30;51.60;;;;;;5094759;28;20144;-85
2023/07/30 10:41:49;;;;;;;0.00;0.00;;;29.90;52.00;;;;;;5110857;28;20051;-85
2023/07/30 10:44:27;;;;;;;0.10;0.10;;;30.40;50.50;;;;;;5104964;28;20043;-84
2023/07/30 10:46:57;;;;;;;0.10;0.10;;;30.10;50.30;;;;;;5095341;28;20680;-85
2023/07/30 10:49:24;;;;;;;0.10;0.10;;;29.90;49.60;;;;;;5104638;28;20051;-84
2023/07/30 10:51:53;;;;;;;0.10;0.10;;;30.00;50.20;;;;;;5101217;28;20465;-85
2023/07/30 10:54:20;;;;;;;0.10;0.10;;;30.70;51.90;;;;;;5107089;28;20051;-85
2023/07/30 10:56:47;;;;;;;0.00;0.00;;;31.00;49.10;;;;;;5111442;28;20575;-85
2023/07/30 10:59:15;;;;;;;0.10;0.10;;;31.30;46.30;;;;;;5109395;28;20074;-86
2023/07/30 11:01:44;;;;;;;0.00;0.00;;;31.20;48.20;;;;;;5107453;28;20136;-86
2023/07/30 11:04:14;;;;;;;0.10;0.10;;;31.10;47.80;;;;;;5089674;28;20151;-85
2023/07/30 11:06:49;;;;;;;0.10;0.10;;;30.70;48.60;;;;;;5087430;28;20043;-85
2023/07/30 11:09:25;;;;;;;0.03;0.03;;;30.50;49.00;;;;;;5094765;28;20048;-85
2023/07/30 11:11:53;;;;;;;0.25;0.25;;;31.10;48.40;;;;;;5091980;28;20055;-85
2023/07/30 11:14:22;;;;;;;2.85;1.50;;;30.40;47.40;;;;;;5095434;28;20097;-85
2023/07/30 11:16:54;;;;;;;4.85;1.50;;;29.60;52.50;;;;;;5099906;28;20079;-85
2023/07/30 11:19:21;;;;;;;5.82;1.80;;;29.10;49.50;;;;;;5094183;28;20579;-84
2023/07/30 11:21:49;;;;;;;8.05;1.80;;;28.20;53.20;;;;;;5094806;28;20052;-85
2023/07/30 11:24:21;;;;;;;4.63;2.00;;;28.20;54.00;;;;;;5104054;28;20760;-83
2023/07/30 11:26:58;;;;;;;3.33;2.00;;;28.80;53.50;;;;;;5095078;28;20214;-84
2023/07/30 11:29:25;;;;;;;9.48;2.03;;;29.20;52.50;;;;;;5097294;28;20093;-85
2023/07/30 11:31:56;;;;;;;7.60;2.17;;;29.60;53.50;;;;;;5098709;28;20124;-84
2023/07/30 11:34:24;;;;;;;5.97;1.80;;;29.70;52.30;;;;;;5104578;28;20126;-84
2023/07/30 11:36:52;;;;;;;5.00;1.90;;;29.10;54.40;;;;;;5098693;28;20044;-85
2023/07/30 11:39:20;;;;;;;3.13;1.67;;;29.50;54.00;;;;;;5094018;28;20052;-84
2023/07/30 11:41:47;;;;;;;5.30;2.05;;;29.70;52.10;;;;;;5099677;28;20048;-83
2023/07/30 11:44:30;;;;;;;5.80;1.83;;;29.60;53.00;;;;;;5093112;28;20530;-84
2023/07/30 11:46:57;;;;;;;5.97;2.08;;;29.20;52.30;;;;;;5095239;28;20048;-83
2023/07/30 11:49:23;;;;;;;7.88;2.67;;;28.70;52.40;;;;;;5104660;28;20817;-85
2023/07/30 11:51:51;;;;;;;4.85;1.90;;;28.40;53.90;;;;;;5092929;28;20853;-84
2023/07/30 11:54:25;;;;;;;6.10;2.40;;;28.40;51.10;;;;;;5100105;28;20082;-84
2023/07/30 11:56:56;;;;;;;7.10;1.77;;;28.20;52.80;;;;;;5101351;28;20128;-84
2023/07/30 11:59:23;;;;;;;6.65;2.00;;;28.10;53.50;;;;;;5094865;28;20047;-84
2023/07/30 12:01:50;;;;;;;10.85;2.45;;;28.40;53.90;;;;;;5095653;28;20142;-83
2023/07/30 12:04:17;;;;;;;8.38;2.08;;;28.30;53.80;;;;;;5107292;28;20044;-84
2023/07/30 12:06:46;;;;;;;5.78;1.98;;;27.90;50.00;;;;;;5098075;28;20487;-83
2023/07/30 12:09:18;;;;;;;9.35;2.13;;;27.40;55.20;;;;;;5101853;28;20465;-84
2023/07/30 12:11:56;;;;;;;9.65;2.03;;;26.90;56.10;;;;;;5107965;28;20051;-85
2023/07/30 12:14:32;;;;;;;2.85;1.88;;;26.40;55.90;;;;;;5100681;28;20127;-84
2023/07/30 12:17:00;;;;;;;7.80;2.20;;;26.30;57.70;;;;;;5102595;28;20487;-84
2023/07/30 12:19:27;;;;;;;5.55;1.73;;;26.50;58.00;;;;;;5097965;28;20353;-84
2023/07/30 12:21:54;;;;;;;6.63;1.80;;;26.80;57.80;;;;;;5095389;28;20127;-84
2023/07/30 12:24:22;;;;;;;8.30;2.38;;;26.90;56.20;;;;;;5100372;28;20044;-84
2023/07/30 12:26:49;;;;;;;5.53;2.05;;;27.10;57.80;;;;;;5089886;28;20075;-85
2023/07/30 12:29:19;;;;;;;6.95;2.28;;;27.00;56.10;;;;;;5097154;28;20074;-84
2023/07/30 12:31:47;;;;;;;6.97;2.13;;;27.20;57.30;;;;;;5105220;28;20048;-84
2023/07/30 12:34:15;;;;;;;6.82;2.15;;;27.20;57.10;;;;;;5098219;28;20131;-85
2023/07/30 12:36:42;;;;;;;9.27;1.98;;;27.10;56.70;;;;;;5109687;28;20112;-85
2023/07/30 12:39:09;;;;;;;7.80;1.83;;;26.80;56.30;;;;;;5104179;28;20052;-85
2023/07/30 12:41:36;;;;;;;5.65;2.13;;;26.50;56.30;;;;;;5095287;28;20067;-84
2023/07/30 12:44:04;;;;;;;9.75;2.38;;;26.10;56.80;;;;;;5105996;28;20118;-84